Portada
METAR-TAF:

METAR-TAF

Aeroports :

Jackson, Tennessee, Estats Units d'Amèrica

latitud: 35-35-35N, longitud: 088-55-00W, altitud: 132 m

Observació

L'informe es va fer fa 41 minuts, a les 00:53 UTC
Vent 3 kt del Sud
Temperatura 27°C
Humitat 62%
Pressió 1014 hPa
Visibilitat: 16.1 km
Cel clar

METAR: KMKL 140053Z AUTO 17003KT 10SM CLR 27/19 A2994 RMK AO2 SLP133 T02670194

Hora: 20:34 (01:34 UTC)

Pronòstic

L'informe es va fer fa 2 hores i 11 minuts, a les 23:23 UTC
Pronòstic vàlid del 14 a les 00 UTC al 14 a les 24 UTC
Vent kt del Nord
Visibilitat: 10 km
Cel clar
A partir de les 14 a les 1400 UTC
Vent 3 kt amb direcció variable
Visibilitat: 10 km
Cel clar
A partir de les 14 a les 1800 UTC
Vent 5 kt del Oest
Visibilitat: 10 km
Cel clar

TAF: KMKL 132323Z 1400/1424 00000KT P6SM SKC FM141400 VRB03KT P6SM SKC FM141800 28005KT P6SM SKC

Observacions i pronòstics meteorològics de més de 4000 aeroports (METAR i TAF).

Les estacions disponibles són els punts grocs i vermells al mapa.

Posi el ratolí al punt desitjat per veure el nom de l'estació.

Feu clic per veure les observacions i els pronòstics meteorològics.

Per canviar el mapa: feu clic els botons verds amb una creu de color negre per apropar; al botó verd amb un guió per allunyar la imatge; o en les fletxes verdes per a mapes adjacents.


METAR-TAF: